sensor_id;sensor_type;location;lat;lon;timestamp;temperature;humidity
7666;DHT22;3875;46.562;4.898;2023-04-28T00:01:16;18.50;74.10
7666;DHT22;3875;46.562;4.898;2023-04-28T00:03:42;18.50;74.30
7666;DHT22;3875;46.562;4.898;2023-04-28T00:06:08;18.50;74.30
7666;DHT22;3875;46.562;4.898;2023-04-28T00:08:33;18.40;74.50
7666;DHT22;3875;46.562;4.898;2023-04-28T00:10:59;18.40;74.50
7666;DHT22;3875;46.562;4.898;2023-04-28T00:13:25;18.40;74.50
7666;DHT22;3875;46.562;4.898;2023-04-28T00:15:51;18.40;74.50
7666;DHT22;3875;46.562;4.898;2023-04-28T00:18:18;18.30;74.50
7666;DHT22;3875;46.562;4.898;2023-04-28T00:20:43;18.30;74.50
7666;DHT22;3875;46.562;4.898;2023-04-28T00:23:09;18.30;74.40
7666;DHT22;3875;46.562;4.898;2023-04-28T00:25:35;18.30;74.40
7666;DHT22;3875;46.562;4.898;2023-04-28T00:28:00;18.30;74.40
7666;DHT22;3875;46.562;4.898;2023-04-28T00:30:29;18.20;74.40
7666;DHT22;3875;46.562;4.898;2023-04-28T00:32:55;18.20;74.40
7666;DHT22;3875;46.562;4.898;2023-04-28T00:35:21;18.10;74.70
7666;DHT22;3875;46.562;4.898;2023-04-28T00:37:46;18.10;74.60
7666;DHT22;3875;46.562;4.898;2023-04-28T00:40:12;18.10;74.70
7666;DHT22;3875;46.562;4.898;2023-04-28T00:42:38;18.10;74.50
7666;DHT22;3875;46.562;4.898;2023-04-28T00:45:04;18.10;74.60
7666;DHT22;3875;46.562;4.898;2023-04-28T00:47:36;18.00;74.60
7666;DHT22;3875;46.562;4.898;2023-04-28T00:50:03;18.00;74.50
7666;DHT22;3875;46.562;4.898;2023-04-28T00:52:32;18.00;74.60
7666;DHT22;3875;46.562;4.898;2023-04-28T00:54:57;18.00;74.60
7666;DHT22;3875;46.562;4.898;2023-04-28T00:57:23;18.00;74.50
7666;DHT22;3875;46.562;4.898;2023-04-28T00:59:49;18.00;74.40
7666;DHT22;3875;46.562;4.898;2023-04-28T01:02:15;18.00;74.40
7666;DHT22;3875;46.562;4.898;2023-04-28T01:04:44;17.90;74.50
7666;DHT22;3875;46.562;4.898;2023-04-28T01:07:10;17.90;74.50
7666;DHT22;3875;46.562;4.898;2023-04-28T01:09:36;17.90;74.50
7666;DHT22;3875;46.562;4.898;2023-04-28T01:12:02;17.90;74.50
7666;DHT22;3875;46.562;4.898;2023-04-28T01:14:28;17.90;74.50
7666;DHT22;3875;46.562;4.898;2023-04-28T01:16:53;17.90;74.60
7666;DHT22;3875;46.562;4.898;2023-04-28T01:19:21;17.90;74.70
7666;DHT22;3875;46.562;4.898;2023-04-28T01:21:47;17.80;74.80
7666;DHT22;3875;46.562;4.898;2023-04-28T01:24:13;17.80;74.90
7666;DHT22;3875;46.562;4.898;2023-04-28T01:26:39;17.80;74.90
7666;DHT22;3875;46.562;4.898;2023-04-28T01:29:05;17.80;75.00
7666;DHT22;3875;46.562;4.898;2023-04-28T01:31:30;17.80;74.90
7666;DHT22;3875;46.562;4.898;2023-04-28T01:33:56;17.80;74.80
7666;DHT22;3875;46.562;4.898;2023-04-28T01:36:22;17.80;74.80
7666;DHT22;3875;46.562;4.898;2023-04-28T01:38:49;17.80;74.90
7666;DHT22;3875;46.562;4.898;2023-04-28T01:41:15;17.80;74.90
7666;DHT22;3875;46.562;4.898;2023-04-28T01:43:40;17.80;74.90
7666;DHT22;3875;46.562;4.898;2023-04-28T01:46:08;17.80;74.90
7666;DHT22;3875;46.562;4.898;2023-04-28T01:48:34;17.80;74.80
7666;DHT22;3875;46.562;4.898;2023-04-28T01:51:00;17.80;74.80
7666;DHT22;3875;46.562;4.898;2023-04-28T01:53:25;17.90;74.70
7666;DHT22;3875;46.562;4.898;2023-04-28T01:55:52;17.90;74.80
7666;DHT22;3875;46.562;4.898;2023-04-28T01:58:18;17.90;74.80
7666;DHT22;3875;46.562;4.898;2023-04-28T02:00:44;17.80;75.10
7666;DHT22;3875;46.562;4.898;2023-04-28T02:03:10;17.80;75.30
7666;DHT22;3875;46.562;4.898;2023-04-28T02:05:36;17.80;75.40
7666;DHT22;3875;46.562;4.898;2023-04-28T02:08:02;17.80;75.40
7666;DHT22;3875;46.562;4.898;2023-04-28T02:10:27;17.80;75.30
7666;DHT22;3875;46.562;4.898;2023-04-28T02:12:53;17.80;75.20
7666;DHT22;3875;46.562;4.898;2023-04-28T02:15:19;17.80;75.40
7666;DHT22;3875;46.562;4.898;2023-04-28T02:17:46;17.80;75.50
7666;DHT22;3875;46.562;4.898;2023-04-28T02:20:11;17.70;75.60
7666;DHT22;3875;46.562;4.898;2023-04-28T02:22:39;17.70;75.60
7666;DHT22;3875;46.562;4.898;2023-04-28T02:25:05;17.70;75.90
7666;DHT22;3875;46.562;4.898;2023-04-28T02:27:31;17.60;76.20
7666;DHT22;3875;46.562;4.898;2023-04-28T02:29:57;17.60;76.50
7666;DHT22;3875;46.562;4.898;2023-04-28T02:32:23;17.60;76.40
7666;DHT22;3875;46.562;4.898;2023-04-28T02:34:53;17.60;76.50
7666;DHT22;3875;46.562;4.898;2023-04-28T02:37:19;17.60;76.50
7666;DHT22;3875;46.562;4.898;2023-04-28T02:39:45;17.60;76.50
7666;DHT22;3875;46.562;4.898;2023-04-28T02:42:10;17.60;76.40
7666;DHT22;3875;46.562;4.898;2023-04-28T02:44:36;17.50;76.40
7666;DHT22;3875;46.562;4.898;2023-04-28T02:47:02;17.60;76.40
7666;DHT22;3875;46.562;4.898;2023-04-28T02:49:27;17.60;76.30
7666;DHT22;3875;46.562;4.898;2023-04-28T02:51:53;17.60;76.20
7666;DHT22;3875;46.562;4.898;2023-04-28T02:54:18;17.60;76.30
7666;DHT22;3875;46.562;4.898;2023-04-28T02:56:52;17.60;76.30
7666;DHT22;3875;46.562;4.898;2023-04-28T02:59:19;17.50;76.40
7666;DHT22;3875;46.562;4.898;2023-04-28T03:01:45;17.50;76.40
7666;DHT22;3875;46.562;4.898;2023-04-28T03:04:10;17.50;76.40
7666;DHT22;3875;46.562;4.898;2023-04-28T03:06:36;17.50;76.50
7666;DHT22;3875;46.562;4.898;2023-04-28T03:09:02;17.50;76.70
7666;DHT22;3875;46.562;4.898;2023-04-28T03:11:28;17.40;76.70
7666;DHT22;3875;46.562;4.898;2023-04-28T03:13:54;17.40;76.80
7666;DHT22;3875;46.562;4.898;2023-04-28T03:16:19;17.40;76.80
7666;DHT22;3875;46.562;4.898;2023-04-28T03:18:45;17.40;76.80
7666;DHT22;3875;46.562;4.898;2023-04-28T03:21:11;17.40;77.00
7666;DHT22;3875;46.562;4.898;2023-04-28T03:23:37;17.40;77.10
7666;DHT22;3875;46.562;4.898;2023-04-28T03:26:02;17.40;77.10
7666;DHT22;3875;46.562;4.898;2023-04-28T03:28:28;17.30;77.10
7666;DHT22;3875;46.562;4.898;2023-04-28T03:30:54;17.30;77.20
7666;DHT22;3875;46.562;4.898;2023-04-28T03:33:20;17.30;77.20
7666;DHT22;3875;46.562;4.898;2023-04-28T03:35:45;17.30;77.20
7666;DHT22;3875;46.562;4.898;2023-04-28T03:38:11;17.30;77.40
7666;DHT22;3875;46.562;4.898;2023-04-28T03:40:37;17.30;77.40
7666;DHT22;3875;46.562;4.898;2023-04-28T03:43:02;17.20;77.50
7666;DHT22;3875;46.562;4.898;2023-04-28T03:45:28;17.20;77.60
7666;DHT22;3875;46.562;4.898;2023-04-28T03:47:54;17.10;77.60
7666;DHT22;3875;46.562;4.898;2023-04-28T03:50:20;17.10;78.00
7666;DHT22;3875;46.562;4.898;2023-04-28T03:52:45;17.10;78.00
7666;DHT22;3875;46.562;4.898;2023-04-28T03:55:11;17.10;78.10
7666;DHT22;3875;46.562;4.898;2023-04-28T03:57:37;17.00;78.20
7666;DHT22;3875;46.562;4.898;2023-04-28T04:00:02;17.00;78.40
7666;DHT22;3875;46.562;4.898;2023-04-28T04:02:28;17.00;78.40
7666;DHT22;3875;46.562;4.898;2023-04-28T04:04:54;17.00;78.50
7666;DHT22;3875;46.562;4.898;2023-04-28T04:07:21;16.90;78.60
7666;DHT22;3875;46.562;4.898;2023-04-28T04:09:47;16.90;78.70
7666;DHT22;3875;46.562;4.898;2023-04-28T04:12:13;16.90;78.80
7666;DHT22;3875;46.562;4.898;2023-04-28T04:14:39;16.90;79.00
7666;DHT22;3875;46.562;4.898;2023-04-28T04:17:05;16.80;79.10
7666;DHT22;3875;46.562;4.898;2023-04-28T04:19:30;16.80;79.10
7666;DHT22;3875;46.562;4.898;2023-04-28T04:21:56;16.80;79.10
7666;DHT22;3875;46.562;4.898;2023-04-28T04:24:22;16.80;79.20
7666;DHT22;3875;46.562;4.898;2023-04-28T04:26:47;16.80;79.30
7666;DHT22;3875;46.562;4.898;2023-04-28T04:29:13;16.70;79.70
7666;DHT22;3875;46.562;4.898;2023-04-28T04:31:39;16.70;79.70
7666;DHT22;3875;46.562;4.898;2023-04-28T04:34:05;16.70;79.60
7666;DHT22;3875;46.562;4.898;2023-04-28T04:36:31;16.70;79.50
7666;DHT22;3875;46.562;4.898;2023-04-28T04:38:57;16.80;79.50
7666;DHT22;3875;46.562;4.898;2023-04-28T04:41:24;16.80;79.60
7666;DHT22;3875;46.562;4.898;2023-04-28T04:43:50;16.70;79.70
7666;DHT22;3875;46.562;4.898;2023-04-28T04:46:16;16.80;79.70
7666;DHT22;3875;46.562;4.898;2023-04-28T04:48:42;16.80;79.70
7666;DHT22;3875;46.562;4.898;2023-04-28T04:51:07;16.80;79.80
7666;DHT22;3875;46.562;4.898;2023-04-28T04:53:33;16.80;79.80
7666;DHT22;3875;46.562;4.898;2023-04-28T04:55:59;16.70;79.90
7666;DHT22;3875;46.562;4.898;2023-04-28T04:58:25;16.80;79.90
7666;DHT22;3875;46.562;4.898;2023-04-28T05:00:51;16.80;79.80
7666;DHT22;3875;46.562;4.898;2023-04-28T05:03:17;16.80;80.10
7666;DHT22;3875;46.562;4.898;2023-04-28T05:05:43;16.70;80.40
7666;DHT22;3875;46.562;4.898;2023-04-28T05:08:10;16.80;80.30
7666;DHT22;3875;46.562;4.898;2023-04-28T05:10:36;16.80;80.70
7666;DHT22;3875;46.562;4.898;2023-04-28T05:13:02;16.80;80.60
7666;DHT22;3875;46.562;4.898;2023-04-28T05:15:28;16.80;80.50
7666;DHT22;3875;46.562;4.898;2023-04-28T05:17:53;16.80;80.60
7666;DHT22;3875;46.562;4.898;2023-04-28T05:20:19;16.90;80.50
7666;DHT22;3875;46.562;4.898;2023-04-28T05:22:45;16.90;80.50
7666;DHT22;3875;46.562;4.898;2023-04-28T05:25:18;16.90;80.50
7666;DHT22;3875;46.562;4.898;2023-04-28T05:27:44;17.00;80.40
7666;DHT22;3875;46.562;4.898;2023-04-28T05:30:09;16.90;80.70
7666;DHT22;3875;46.562;4.898;2023-04-28T05:32:36;17.00;80.70
7666;DHT22;3875;46.562;4.898;2023-04-28T05:35:02;16.90;81.00
7666;DHT22;3875;46.562;4.898;2023-04-28T05:37:28;17.00;81.00
7666;DHT22;3875;46.562;4.898;2023-04-28T05:39:54;17.00;81.20
7666;DHT22;3875;46.562;4.898;2023-04-28T05:42:19;17.00;81.10
7666;DHT22;3875;46.562;4.898;2023-04-28T05:44:45;17.00;81.10
7666;DHT22;3875;46.562;4.898;2023-04-28T05:47:11;17.00;81.20
7666;DHT22;3875;46.562;4.898;2023-04-28T05:50:13;17.00;81.30
7666;DHT22;3875;46.562;4.898;2023-04-28T05:55:40;17.00;81.40
7666;DHT22;3875;46.562;4.898;2023-04-28T05:58:19;17.10;81.20
7666;DHT22;3875;46.562;4.898;2023-04-28T06:00:51;17.10;81.40
7666;DHT22;3875;46.562;4.898;2023-04-28T06:03:27;17.10;81.40
7666;DHT22;3875;46.562;4.898;2023-04-28T06:06:10;17.10;81.20
7666;DHT22;3875;46.562;4.898;2023-04-28T06:08:49;17.10;81.20
7666;DHT22;3875;46.562;4.898;2023-04-28T06:14:52;17.20;80.90
7666;DHT22;3875;46.562;4.898;2023-04-28T06:17:32;17.30;80.90
7666;DHT22;3875;46.562;4.898;2023-04-28T06:20:27;17.30;80.80
7666;DHT22;3875;46.562;4.898;2023-04-28T06:23:03;17.30;80.70
7666;DHT22;3875;46.562;4.898;2023-04-28T06:26:08;17.50;80.60
7666;DHT22;3875;46.562;4.898;2023-04-28T06:28:36;17.60;80.30
7666;DHT22;3875;46.562;4.898;2023-04-28T06:31:34;17.60;80.30
7666;DHT22;3875;46.562;4.898;2023-04-28T06:37:34;17.70;80.40
7666;DHT22;3875;46.562;4.898;2023-04-28T06:40:03;17.80;80.20
7666;DHT22;3875;46.562;4.898;2023-04-28T06:42:29;17.80;80.30
7666;DHT22;3875;46.562;4.898;2023-04-28T06:45:01;17.90;80.30
7666;DHT22;3875;46.562;4.898;2023-04-28T06:51:32;18.30;79.30
7666;DHT22;3875;46.562;4.898;2023-04-28T07:13:08;18.90;78.40
7666;DHT22;3875;46.562;4.898;2023-04-28T07:16:11;19.10;77.80
7666;DHT22;3875;46.562;4.898;2023-04-28T07:19:27;19.30;77.60
7666;DHT22;3875;46.562;4.898;2023-04-28T07:22:33;19.40;76.90
7666;DHT22;3875;46.562;4.898;2023-04-28T07:35:55;20.50;75.30
7666;DHT22;3875;46.562;4.898;2023-04-28T07:52:48;20.40;74.50
7666;DHT22;3875;46.562;4.898;2023-04-28T07:55:57;20.40;74.90
7666;DHT22;3875;46.562;4.898;2023-04-28T07:58:36;20.60;75.30
7666;DHT22;3875;46.562;4.898;2023-04-28T08:11:33;21.50;73.50
7666;DHT22;3875;46.562;4.898;2023-04-28T08:36:30;21.40;73.00
7666;DHT22;3875;46.562;4.898;2023-04-28T08:46:34;21.40;72.50
7666;DHT22;3875;46.562;4.898;2023-04-28T08:49:33;21.40;73.50
7666;DHT22;3875;46.562;4.898;2023-04-28T08:52:16;21.70;72.30
7666;DHT22;3875;46.562;4.898;2023-04-28T08:55:35;22.00;72.10
7666;DHT22;3875;46.562;4.898;2023-04-28T08:58:20;22.20;71.20
7666;DHT22;3875;46.562;4.898;2023-04-28T09:01:09;22.20;71.50
7666;DHT22;3875;46.562;4.898;2023-04-28T09:04:01;22.20;71.70
7666;DHT22;3875;46.562;4.898;2023-04-28T09:06:56;22.40;71.50
7666;DHT22;3875;46.562;4.898;2023-04-28T09:09:25;22.70;72.00
7666;DHT22;3875;46.562;4.898;2023-04-28T09:12:35;23.20;70.80
7666;DHT22;3875;46.562;4.898;2023-04-28T09:15:47;23.80;69.70
7666;DHT22;3875;46.562;4.898;2023-04-28T09:19:03;23.80;67.30
7666;DHT22;3875;46.562;4.898;2023-04-28T09:22:13;23.60;67.90
7666;DHT22;3875;46.562;4.898;2023-04-28T09:25:22;23.40;68.70
7666;DHT22;3875;46.562;4.898;2023-04-28T09:28:18;23.40;68.90
7666;DHT22;3875;46.562;4.898;2023-04-28T09:30:59;23.30;69.20
7666;DHT22;3875;46.562;4.898;2023-04-28T09:33:36;23.40;69.50
7666;DHT22;3875;46.562;4.898;2023-04-28T09:36:32;23.30;68.70
7666;DHT22;3875;46.562;4.898;2023-04-28T09:38:59;23.00;69.10
7666;DHT22;3875;46.562;4.898;2023-04-28T09:41:54;22.70;70.20
7666;DHT22;3875;46.562;4.898;2023-04-28T09:47:26;23.00;70.50
7666;DHT22;3875;46.562;4.898;2023-04-28T09:51:03;23.00;69.80
7666;DHT22;3875;46.562;4.898;2023-04-28T09:53:30;23.20;69.60
7666;DHT22;3875;46.562;4.898;2023-04-28T09:59:31;24.20;68.70
7666;DHT22;3875;46.562;4.898;2023-04-28T10:12:39;24.60;67.70
7666;DHT22;3875;46.562;4.898;2023-04-28T10:18:27;24.90;67.40
7666;DHT22;3875;46.562;4.898;2023-04-28T10:21:11;24.70;66.80
7666;DHT22;3875;46.562;4.898;2023-04-28T10:27:07;25.00;66.90
7666;DHT22;3875;46.562;4.898;2023-04-28T10:29:36;25.10;67.80
7666;DHT22;3875;46.562;4.898;2023-04-28T10:32:26;25.20;67.60
7666;DHT22;3875;46.562;4.898;2023-04-28T10:38:15;25.20;66.20
7666;DHT22;3875;46.562;4.898;2023-04-28T10:40:48;25.00;66.80
7666;DHT22;3875;46.562;4.898;2023-04-28T10:47:09;24.90;66.10
7666;DHT22;3875;46.562;4.898;2023-04-28T10:50:23;24.80;66.60
7666;DHT22;3875;46.562;4.898;2023-04-28T10:53:11;24.60;67.10
7666;DHT22;3875;46.562;4.898;2023-04-28T10:55:46;24.50;67.40
7666;DHT22;3875;46.562;4.898;2023-04-28T10:58:36;24.50;67.90
7666;DHT22;3875;46.562;4.898;2023-04-28T11:01:42;24.50;67.60
7666;DHT22;3875;46.562;4.898;2023-04-28T11:04:17;24.70;67.80
7666;DHT22;3875;46.562;4.898;2023-04-28T11:07:11;24.80;67.30
7666;DHT22;3875;46.562;4.898;2023-04-28T11:09:56;24.80;67.20
7666;DHT22;3875;46.562;4.898;2023-04-28T11:15:22;25.00;67.20
7666;DHT22;3875;46.562;4.898;2023-04-28T11:24:32;25.40;67.00
7666;DHT22;3875;46.562;4.898;2023-04-28T11:27:33;25.70;66.90
7666;DHT22;3875;46.562;4.898;2023-04-28T11:33:47;26.50;66.10
7666;DHT22;3875;46.562;4.898;2023-04-28T11:36:41;27.00;65.00
7666;DHT22;3875;46.562;4.898;2023-04-28T11:39:51;27.20;64.30
7666;DHT22;3875;46.562;4.898;2023-04-28T11:42:28;27.00;64.30
7666;DHT22;3875;46.562;4.898;2023-04-28T11:44:56;26.90;64.00
7666;DHT22;3875;46.562;4.898;2023-04-28T11:50:49;27.60;64.30
7666;DHT22;3875;46.562;4.898;2023-04-28T11:53:19;28.30;62.70
7666;DHT22;3875;46.562;4.898;2023-04-28T12:03:20;29.00;59.90
7666;DHT22;3875;46.562;4.898;2023-04-28T12:12:45;28.80;60.30
7666;DHT22;3875;46.562;4.898;2023-04-28T12:15:56;28.60;61.40
7666;DHT22;3875;46.562;4.898;2023-04-28T12:18:56;28.70;61.10
7666;DHT22;3875;46.562;4.898;2023-04-28T12:21:38;28.50;61.10
7666;DHT22;3875;46.562;4.898;2023-04-28T12:24:28;28.30;61.10
7666;DHT22;3875;46.562;4.898;2023-04-28T12:27:26;28.20;61.30
7666;DHT22;3875;46.562;4.898;2023-04-28T12:33:26;27.90;62.10
7666;DHT22;3875;46.562;4.898;2023-04-28T12:36:21;28.00;62.00
7666;DHT22;3875;46.562;4.898;2023-04-28T12:39:11;27.80;61.00
7666;DHT22;3875;46.562;4.898;2023-04-28T12:42:19;27.40;62.20
7666;DHT22;3875;46.562;4.898;2023-04-28T12:45:22;27.30;62.20
7666;DHT22;3875;46.562;4.898;2023-04-28T12:48:11;27.10;62.90
7666;DHT22;3875;46.562;4.898;2023-04-28T12:51:06;26.80;63.30
7666;DHT22;3875;46.562;4.898;2023-04-28T12:54:07;26.90;63.10
7666;DHT22;3875;46.562;4.898;2023-04-28T12:56:59;27.10;63.70
7666;DHT22;3875;46.562;4.898;2023-04-28T12:59:54;27.40;64.10
7666;DHT22;3875;46.562;4.898;2023-04-28T13:06:10;28.30;62.90
7666;DHT22;3875;46.562;4.898;2023-04-28T13:09:02;28.60;62.20
7666;DHT22;3875;46.562;4.898;2023-04-28T13:11:56;28.70;61.00
7666;DHT22;3875;46.562;4.898;2023-04-28T13:14:45;28.70;60.90
7666;DHT22;3875;46.562;4.898;2023-04-28T13:17:24;28.50;62.00
7666;DHT22;3875;46.562;4.898;2023-04-28T13:20:12;28.20;61.60
7666;DHT22;3875;46.562;4.898;2023-04-28T13:22:43;27.70;61.50
7666;DHT22;3875;46.562;4.898;2023-04-28T13:25:19;27.40;62.40
7666;DHT22;3875;46.562;4.898;2023-04-28T13:31:02;27.70;63.10
7666;DHT22;3875;46.562;4.898;2023-04-28T13:33:54;27.90;62.30
7666;DHT22;3875;46.562;4.898;2023-04-28T13:39:48;27.80;61.50
7666;DHT22;3875;46.562;4.898;2023-04-28T13:43:07;27.50;62.30
7666;DHT22;3875;46.562;4.898;2023-04-28T13:46:17;27.40;62.30
7666;DHT22;3875;46.562;4.898;2023-04-28T13:49:40;27.30;63.10
7666;DHT22;3875;46.562;4.898;2023-04-28T13:52:12;27.40;63.50
7666;DHT22;3875;46.562;4.898;2023-04-28T13:59:05;28.20;62.70
7666;DHT22;3875;46.562;4.898;2023-04-28T14:18:52;29.30;60.40
7666;DHT22;3875;46.562;4.898;2023-04-28T14:25:36;29.10;59.40
7666;DHT22;3875;46.562;4.898;2023-04-28T14:28:12;29.00;59.10
7666;DHT22;3875;46.562;4.898;2023-04-28T14:30:56;28.90;59.10
7666;DHT22;3875;46.562;4.898;2023-04-28T14:33:54;28.80;60.10
7666;DHT22;3875;46.562;4.898;2023-04-28T14:36:38;28.50;60.00
7666;DHT22;3875;46.562;4.898;2023-04-28T14:39:16;28.20;60.50
7666;DHT22;3875;46.562;4.898;2023-04-28T14:41:56;27.80;60.90
7666;DHT22;3875;46.562;4.898;2023-04-28T14:44:42;27.70;61.70
7666;DHT22;3875;46.562;4.898;2023-04-28T14:47:29;27.80;62.50
7666;DHT22;3875;46.562;4.898;2023-04-28T14:49:58;27.90;62.30
7666;DHT22;3875;46.562;4.898;2023-04-28T14:52:25;28.10;61.20
7666;DHT22;3875;46.562;4.898;2023-04-28T14:54:58;28.20;60.70
7666;DHT22;3875;46.562;4.898;2023-04-28T14:57:49;28.30;61.10
7666;DHT22;3875;46.562;4.898;2023-04-28T15:00:46;28.50;61.80
7666;DHT22;3875;46.562;4.898;2023-04-28T15:03:16;28.70;60.40
7666;DHT22;3875;46.562;4.898;2023-04-28T15:05:42;28.60;61.20
7666;DHT22;3875;46.562;4.898;2023-04-28T15:08:15;28.40;60.90
7666;DHT22;3875;46.562;4.898;2023-04-28T15:10:48;28.50;60.80
7666;DHT22;3875;46.562;4.898;2023-04-28T15:16:17;28.80;60.10
7666;DHT22;3875;46.562;4.898;2023-04-28T15:18:42;28.50;60.30
7666;DHT22;3875;46.562;4.898;2023-04-28T15:21:09;28.40;61.00
7666;DHT22;3875;46.562;4.898;2023-04-28T15:23:37;28.30;61.20
7666;DHT22;3875;46.562;4.898;2023-04-28T15:26:10;28.10;61.10
7666;DHT22;3875;46.562;4.898;2023-04-28T15:28:36;27.90;61.10
7666;DHT22;3875;46.562;4.898;2023-04-28T15:31:02;27.90;61.70
7666;DHT22;3875;46.562;4.898;2023-04-28T15:33:29;28.00;61.80
7666;DHT22;3875;46.562;4.898;2023-04-28T15:35:55;28.00;61.60
7666;DHT22;3875;46.562;4.898;2023-04-28T15:38:23;28.00;61.60
7666;DHT22;3875;46.562;4.898;2023-04-28T15:40:53;27.80;61.90
7666;DHT22;3875;46.562;4.898;2023-04-28T15:43:21;27.60;61.60
7666;DHT22;3875;46.562;4.898;2023-04-28T15:45:47;27.40;61.60
7666;DHT22;3875;46.562;4.898;2023-04-28T15:48:13;27.10;62.20
7666;DHT22;3875;46.562;4.898;2023-04-28T15:50:39;27.00;62.70
7666;DHT22;3875;46.562;4.898;2023-04-28T15:53:11;27.00;62.50
7666;DHT22;3875;46.562;4.898;2023-04-28T15:55:50;27.00;63.00
7666;DHT22;3875;46.562;4.898;2023-04-28T15:58:15;27.00;63.00
7666;DHT22;3875;46.562;4.898;2023-04-28T16:00:41;26.90;63.00
7666;DHT22;3875;46.562;4.898;2023-04-28T16:03:11;26.90;63.40
7666;DHT22;3875;46.562;4.898;2023-04-28T16:05:40;26.80;63.30
7666;DHT22;3875;46.562;4.898;2023-04-28T16:08:06;26.70;63.70
7666;DHT22;3875;46.562;4.898;2023-04-28T16:10:34;26.60;64.00
7666;DHT22;3875;46.562;4.898;2023-04-28T16:13:05;26.70;64.20
7666;DHT22;3875;46.562;4.898;2023-04-28T16:15:37;27.10;63.40
7666;DHT22;3875;46.562;4.898;2023-04-28T16:18:03;27.70;62.90
7666;DHT22;3875;46.562;4.898;2023-04-28T16:20:29;28.20;61.50
7666;DHT22;3875;46.562;4.898;2023-04-28T16:22:55;28.70;60.90
7666;DHT22;3875;46.562;4.898;2023-04-28T16:25:23;29.00;59.90
7666;DHT22;3875;46.562;4.898;2023-04-28T16:27:57;29.10;59.60
7666;DHT22;3875;46.562;4.898;2023-04-28T16:30:23;29.40;59.90
7666;DHT22;3875;46.562;4.898;2023-04-28T16:32:52;29.40;59.10
7666;DHT22;3875;46.562;4.898;2023-04-28T16:35:25;29.40;59.60
7666;DHT22;3875;46.562;4.898;2023-04-28T16:37:56;29.10;59.70
7666;DHT22;3875;46.562;4.898;2023-04-28T16:40:24;28.60;60.10
7666;DHT22;3875;46.562;4.898;2023-04-28T16:42:50;27.90;60.80
7666;DHT22;3875;46.562;4.898;2023-04-28T16:45:15;27.50;61.80
7666;DHT22;3875;46.562;4.898;2023-04-28T16:47:51;27.30;62.40
7666;DHT22;3875;46.562;4.898;2023-04-28T16:50:21;27.10;62.40
7666;DHT22;3875;46.562;4.898;2023-04-28T16:52:52;26.90;62.70
7666;DHT22;3875;46.562;4.898;2023-04-28T16:55:20;26.80;63.40
7666;DHT22;3875;46.562;4.898;2023-04-28T16:57:45;26.70;64.10
7666;DHT22;3875;46.562;4.898;2023-04-28T17:00:12;26.70;64.40
7666;DHT22;3875;46.562;4.898;2023-04-28T17:02:38;26.70;64.60
7666;DHT22;3875;46.562;4.898;2023-04-28T17:05:08;26.80;64.60
7666;DHT22;3875;46.562;4.898;2023-04-28T17:07:36;26.90;64.10
7666;DHT22;3875;46.562;4.898;2023-04-28T17:10:02;26.80;64.20
7666;DHT22;3875;46.562;4.898;2023-04-28T17:12:28;26.70;64.40
7666;DHT22;3875;46.562;4.898;2023-04-28T17:14:53;26.60;64.40
7666;DHT22;3875;46.562;4.898;2023-04-28T17:17:19;26.50;64.50
7666;DHT22;3875;46.562;4.898;2023-04-28T17:19:45;26.40;64.70
7666;DHT22;3875;46.562;4.898;2023-04-28T17:22:11;26.40;65.00
7666;DHT22;3875;46.562;4.898;2023-04-28T17:24:36;26.40;64.60
7666;DHT22;3875;46.562;4.898;2023-04-28T17:27:02;26.30;64.40
7666;DHT22;3875;46.562;4.898;2023-04-28T17:29:28;26.10;64.30
7666;DHT22;3875;46.562;4.898;2023-04-28T17:31:54;26.00;64.40
7666;DHT22;3875;46.562;4.898;2023-04-28T17:34:19;25.90;64.90
7666;DHT22;3875;46.562;4.898;2023-04-28T17:36:45;25.80;65.10
7666;DHT22;3875;46.562;4.898;2023-04-28T17:39:11;25.70;65.40
7666;DHT22;3875;46.562;4.898;2023-04-28T17:41:37;25.60;65.70
7666;DHT22;3875;46.562;4.898;2023-04-28T17:44:03;25.60;66.00
7666;DHT22;3875;46.562;4.898;2023-04-28T17:46:29;25.60;66.20
7666;DHT22;3875;46.562;4.898;2023-04-28T17:48:55;25.50;66.40
7666;DHT22;3875;46.562;4.898;2023-04-28T17:51:20;25.40;66.50
7666;DHT22;3875;46.562;4.898;2023-04-28T17:53:46;25.20;66.70
7666;DHT22;3875;46.562;4.898;2023-04-28T17:56:14;25.10;66.90
7666;DHT22;3875;46.562;4.898;2023-04-28T17:58:42;25.00;67.10
7666;DHT22;3875;46.562;4.898;2023-04-28T18:01:10;24.90;67.40
7666;DHT22;3875;46.562;4.898;2023-04-28T18:03:44;24.80;67.50
7666;DHT22;3875;46.562;4.898;2023-04-28T18:06:13;24.70;67.60
7666;DHT22;3875;46.562;4.898;2023-04-28T18:08:47;24.60;67.60
7666;DHT22;3875;46.562;4.898;2023-04-28T18:11:16;24.50;67.70
7666;DHT22;3875;46.562;4.898;2023-04-28T18:13:42;24.40;69.10
7666;DHT22;3875;46.562;4.898;2023-04-28T18:16:08;24.30;71.10
7666;DHT22;3875;46.562;4.898;2023-04-28T18:18:38;24.20;72.30
7666;DHT22;3875;46.562;4.898;2023-04-28T18:21:04;24.00;73.80
7666;DHT22;3875;46.562;4.898;2023-04-28T18:23:29;23.90;74.50
7666;DHT22;3875;46.562;4.898;2023-04-28T18:25:55;23.80;74.80
7666;DHT22;3875;46.562;4.898;2023-04-28T18:28:21;23.60;75.40
7666;DHT22;3875;46.562;4.898;2023-04-28T18:30:47;23.40;75.50
7666;DHT22;3875;46.562;4.898;2023-04-28T18:33:12;23.10;76.20
7666;DHT22;3875;46.562;4.898;2023-04-28T18:35:39;22.50;77.90
7666;DHT22;3875;46.562;4.898;2023-04-28T18:38:05;22.20;78.70
7666;DHT22;3875;46.562;4.898;2023-04-28T18:40:32;22.00;79.40
7666;DHT22;3875;46.562;4.898;2023-04-28T18:42:59;22.00;79.70
7666;DHT22;3875;46.562;4.898;2023-04-28T18:45:29;22.00;79.50
7666;DHT22;3875;46.562;4.898;2023-04-28T18:47:55;21.90;79.70
7666;DHT22;3875;46.562;4.898;2023-04-28T18:50:21;21.80;80.20
7666;DHT22;3875;46.562;4.898;2023-04-28T18:52:48;21.80;80.70
7666;DHT22;3875;46.562;4.898;2023-04-28T18:55:13;21.90;80.60
7666;DHT22;3875;46.562;4.898;2023-04-28T18:57:40;22.00;80.40
7666;DHT22;3875;46.562;4.898;2023-04-28T19:00:06;22.00;80.40
7666;DHT22;3875;46.562;4.898;2023-04-28T19:02:34;22.00;80.50
7666;DHT22;3875;46.562;4.898;2023-04-28T19:05:01;21.90;80.90
7666;DHT22;3875;46.562;4.898;2023-04-28T19:07:27;21.80;81.60
7666;DHT22;3875;46.562;4.898;2023-04-28T19:09:53;21.70;81.90
7666;DHT22;3875;46.562;4.898;2023-04-28T19:12:18;21.60;82.00
7666;DHT22;3875;46.562;4.898;2023-04-28T19:14:44;21.40;82.30
7666;DHT22;3875;46.562;4.898;2023-04-28T19:17:09;21.40;82.40
7666;DHT22;3875;46.562;4.898;2023-04-28T19:19:35;21.30;82.70
7666;DHT22;3875;46.562;4.898;2023-04-28T19:22:01;21.20;82.70
7666;DHT22;3875;46.562;4.898;2023-04-28T19:24:27;21.10;83.00
7666;DHT22;3875;46.562;4.898;2023-04-28T19:26:54;21.10;83.10
7666;DHT22;3875;46.562;4.898;2023-04-28T19:29:25;21.20;83.10
7666;DHT22;3875;46.562;4.898;2023-04-28T19:31:51;21.20;83.20
7666;DHT22;3875;46.562;4.898;2023-04-28T19:34:17;21.20;83.00
7666;DHT22;3875;46.562;4.898;2023-04-28T19:36:42;21.20;83.10
7666;DHT22;3875;46.562;4.898;2023-04-28T19:39:08;21.20;83.10
7666;DHT22;3875;46.562;4.898;2023-04-28T19:41:34;21.10;83.30
7666;DHT22;3875;46.562;4.898;2023-04-28T19:44:00;21.10;83.30
7666;DHT22;3875;46.562;4.898;2023-04-28T19:46:26;21.10;83.20
7666;DHT22;3875;46.562;4.898;2023-04-28T19:48:52;21.00;83.60
7666;DHT22;3875;46.562;4.898;2023-04-28T19:51:17;20.90;84.00
7666;DHT22;3875;46.562;4.898;2023-04-28T19:53:43;20.90;84.20
7666;DHT22;3875;46.562;4.898;2023-04-28T19:56:11;20.90;84.50
7666;DHT22;3875;46.562;4.898;2023-04-28T19:58:37;21.00;84.20
7666;DHT22;3875;46.562;4.898;2023-04-28T20:01:07;21.00;84.20